الصفحة الرئيسية
METAR-TAF:

METAR-TAF

مطار :

مطار تندوف

تندوف, الجزائر

دائرة عرض: 27-40N, خط طول: 008-08W, ارتفاع: 431 متر

مراقبة الطقس الحالي

تاريخ ووقت الإصدار 26 دقيقة قبل الساعة 09:00UTC
ريح 2 عقدة من الشرق/الشمال الشرقي
درجة الحرارة 19°درجة مئوية
الرطوبة 24%
ضغط 1011 hPa
الرؤية 10 كم أو أكثر
الغيوم لا تقل 1500 م ولا وجود لمزنة ركامية السحاب الأسود

METAR: DAOF 040900Z 06002KT CAVOK 19/M02 Q1011

زمن: 10:26 (09:26 UTC)

توقعات

تاريخ ووقت الإصدار 1ساعة و 26 دقيقة قبل الساعة 08:00UTC
التوقعات صالحة من04 الساعة 09 UTC إلى 04 الساعة 18 UTC
ريح 12 عقدة من الغرب
الرؤية 10 كم أو أكثر
الغيوم لا تقل 1500 م ولا وجود لمزنة ركامية السحاب الأسود

TAF: DAOF 040800Z 0409/0418 28012KT CAVOK

أرصاد الطقس والتوقعات من أكثر من 4000 مطار (تقارير الطقس للمطار METAR والتنبؤ بالطقس بالمطارTAF).

المحطات المتاحة هي النقط الصفراء والحمراء على الخريطة.

حرك المؤشر فوق النقطة لمعرفة اسم المحطة.

ثم انقر لمعرفة أرصاد وتوقعات الطقس.

لتغيير الخارطة: اضغط على الأزرار الخضراء مع رمز الصليب الأسود للتكبير. على الزر الأخضر مع شرطة للتصغير، أو على الأسهم الخضراء للخرائط المجاورة.


METAR-TAF: